Apopka, FL (32703)

11:38 AM EDT on April 25, 2017 (GMT -0400)
N4EC @ Bell Air Hills III | | Change Station

Elev 125 ft 28.67 °N, 81.46 °W | Updated 4 seconds ago

Partly Cloudy
Partly Cloudy
74.3 °F
Feels Like 77 °F
N
0.7
Wind Variable Wind from NW
Gusts 0.9 mph

Today
High -- | Low -- °F
--% Chance of Precip.
Yesterday
High -- | Low -- °F
Precip. -- in
Pressure 29.87 in
Visibility 10.0 miles
Clouds Mostly Cloudy 3900 ft
Heat Index 77 °F
Dew Point 54 °F
Humidity 50%
Rainfall 0.00 in
Snow Depth Not available.
6:50 AM 7:57 PM
Waning Crescent, 1% visible
METAR KORL 251453Z 29012KT 10SM BKN039 22/12 A2986 RMK AO2 SLP115 T02170122 53013
Pressure 29.87 in
Visibility 10.0 miles
Clouds Mostly Cloudy 3900 ft
Heat Index 77 °F
Dew Point 54 °F
Humidity 50%
Rainfall 0.00 in
Snow Depth Not available.
6:50 AM 7:57 PM
Waning Crescent, 1% visible
METAR KORL 251453Z 29012KT 10SM BKN039 22/12 A2986 RMK AO2 SLP115 T02170122 53013

Get Severe Weather Alerts

Thanks for signing up!

Be on the lookout for a verification email in your inbox.

You'll start receiving the daily forecast at 8 AM.

×

10-Day Weather Forecast

Almanac

Astronomy

Apr. 25, 2017 Rise Set
Actual Time
Civil Twilight
Nautical Twilight
Astronomical Twilight
Moon
Length of Visible Light
Length of Day
Tomorrow will be .
, % of the Moon is Illuminated

Today's Extremes

State Highs State Lows

Community

WunderPhotos

WunderBlog® & News

Nearby

Air Quality

  Air Quality AQ Index Pollutant
Not available.

Snow Depth

Station Depth Elevation

Earthquake Activity

City Distance Mag. Time & Date
Minimum magnitude displayed is 2.5.

Coastal Water Temperatures

Place Temperature

Stations

Nearby Weather Stations

Station Location Temp. Windchill Dew Point Humidity Wind Precip. Elev Updated Type
                   

Watches & Warnings

There are currently no watches in effect.